Time;durP1;ratioP1;P1;durP2;ratioP2;P2;SDS_P1;SDS_P2;PMS_P1;PMS_P2;Temp;Humidity;BMP_temperature;BMP_pressure;BME280_temperature;BME280_humidity;BME280_pressure;Samples;Min_cycle;Max_cycle;Signal;HPM_P1;HPM_P2
2021/06/02 00:03:47;;;;;;;2.60;1.97;;;;;;;12.73;100.00;98969.47;10498515;28;20175;-74
2021/06/02 00:09:06;;;;;;;2.30;2.10;;;;;;;12.62;100.00;98975.56;10495954;28;20167;-73
2021/06/02 00:14:27;;;;;;;2.73;2.53;;;;;;;12.55;100.00;98968.16;10497904;28;20203;-73
2021/06/02 00:19:46;;;;;;;7.93;3.33;;;;;;;12.64;100.00;98964.91;10496457;28;20175;-73
2021/06/02 00:25:06;;;;;;;3.63;2.67;;;;;;;12.55;100.00;98968.16;10497270;28;20261;-74
2021/06/02 00:30:26;;;;;;;2.70;1.73;;;;;;;12.34;100.00;98951.09;10497792;28;20178;-75
2021/06/02 00:35:45;;;;;;;6.53;2.10;;;;;;;12.31;100.00;98955.47;10495959;28;20628;-73
2021/06/02 00:41:04;;;;;;;2.53;2.10;;;;;;;12.16;100.00;98962.38;10497625;28;20186;-75
2021/06/02 00:46:26;;;;;;;2.83;2.40;;;;;;;12.05;100.00;98958.16;10496675;28;20249;-73
2021/06/02 00:51:46;;;;;;;4.20;2.70;;;;;;;12.00;100.00;98959.41;10495108;28;20265;-74
2021/06/02 00:57:17;;;;;;;3.17;2.80;;;;;;;11.91;100.00;98957.53;10496567;28;20664;-75
2021/06/02 01:02:37;;;;;;;2.50;2.30;;;;;;;11.89;100.00;98959.91;10496176;28;20182;-76
2021/06/02 01:08:01;;;;;;;3.23;2.40;;;;;;;11.85;100.00;98962.72;10495734;28;20270;-74
2021/06/02 01:13:22;;;;;;;6.50;3.47;;;;;;;11.91;100.00;98963.06;10496775;28;20233;-74
2021/06/02 01:18:41;;;;;;;3.70;2.60;;;;;;;11.60;100.00;98964.19;10496871;28;20171;-73
2021/06/02 01:24:01;;;;;;;3.90;2.90;;;;;;;11.63;100.00;98966.91;10495368;28;20637;-73
2021/06/02 01:29:22;;;;;;;2.30;2.10;;;;;;;11.56;100.00;98972.47;10496732;28;20261;-73
2021/06/02 01:35:05;;;;;;;3.57;2.83;;;;;;;11.44;100.00;98983.19;10502083;28;20226;-73
2021/06/02 01:40:54;;;;;;;4.60;3.27;;;;;;;11.25;100.00;98979.03;10504128;28;20190;-73
2021/06/02 01:46:47;;;;;;;3.43;2.10;;;;;;;11.11;100.00;98981.09;10503873;28;20183;-74
2021/06/02 01:52:19;;;;;;;3.30;2.30;;;;;;;10.95;100.00;98975.31;10502429;28;20204;-74
2021/06/02 01:58:00;;;;;;;3.00;1.97;;;;;;;11.10;100.00;98985.81;10503684;28;20729;-73
2021/06/02 02:04:05;;;;;;;3.40;3.00;;;;;;;10.88;100.00;98982.84;10502336;28;20232;-73
2021/06/02 02:09:27;;;;;;;3.33;2.40;;;;;;;10.87;100.00;98997.78;10498484;28;20183;-73
2021/06/02 02:15:10;;;;;;;4.67;3.10;;;;;;;10.89;100.00;98998.16;10501573;28;20198;-74
2021/06/02 02:20:42;;;;;;;5.33;2.50;;;;;;;10.70;100.00;99006.94;10501361;28;20174;-72
2021/06/02 02:26:51;;;;;;;1.90;1.67;;;;;;;10.60;100.00;99011.31;10502510;28;20167;-73
2021/06/02 02:32:19;;;;;;;4.80;2.20;;;;;;;10.49;100.00;99010.59;10498821;28;20213;-73
2021/06/02 02:38:05;;;;;;;3.30;2.37;;;;;;;10.38;100.00;99009.03;10500703;28;20195;-72
2021/06/02 02:43:54;;;;;;;3.20;2.33;;;;;;;10.37;100.00;99010.25;10501206;28;20625;-75
2021/06/02 02:49:38;;;;;;;2.77;2.27;;;;;;;10.35;100.00;99005.13;10500612;28;20182;-75
2021/06/02 02:55:07;;;;;;;3.90;2.60;;;;;;;10.12;100.00;99015.06;10498615;28;20580;-74
2021/06/02 03:01:11;;;;;;;2.60;2.37;;;;;;;10.17;100.00;99017.38;10501021;28;20179;-73
2021/06/02 03:06:38;;;;;;;4.20;2.60;;;;;;;10.16;100.00;99021.31;10498933;28;20203;-72
2021/06/02 03:12:09;;;;;;;3.57;2.77;;;;;;;10.15;100.00;99021.72;10499590;28;20254;-75
2021/06/02 03:17:38;;;;;;;2.87;2.17;;;;;;;10.10;100.00;99022.91;10500386;28;20191;-73
2021/06/02 03:23:32;;;;;;;5.27;2.20;;;;;;;10.06;100.00;99022.13;10498774;28;20186;-73
2021/06/02 03:29:01;;;;;;;4.63;2.73;;;;;;;10.28;100.00;99031.09;10500008;28;20174;-73
2021/06/02 03:34:42;;;;;;;4.17;2.80;;;;;;;10.30;100.00;99042.47;10499118;28;20230;-75
2021/06/02 03:40:10;;;;;;;2.03;1.83;;;;;;;10.24;100.00;99050.34;10498046;28;20175;-73
2021/06/02 03:45:59;;;;;;;1.97;1.83;;;;;;;10.11;100.00;99062.16;10499252;28;20249;-73
2021/06/02 03:51:20;;;;;;;3.53;2.23;;;;;;;10.23;100.00;99059.00;10497763;28;20545;-73
2021/06/02 03:57:21;;;;;;;3.40;2.40;;;;;;;10.10;100.00;99055.88;10497726;28;20207;-75
2021/06/02 04:03:02;;;;;;;11.17;3.60;;;;;;;10.00;100.00;99061.41;10495467;28;20206;-72
2021/06/02 04:08:34;;;;;;;3.27;1.80;;;;;;;10.03;100.00;99068.84;10497399;28;20257;-73
2021/06/02 04:13:59;;;;;;;3.50;2.00;;;;;;;10.02;100.00;99065.34;10498045;28;20202;-72
2021/06/02 04:19:19;;;;;;;2.70;2.50;;;;;;;9.98;100.00;99069.25;10498102;28;20171;-73
2021/06/02 04:24:38;;;;;;;6.40;2.57;;;;;;;9.93;100.00;99077.88;10495850;28;20178;-72
2021/06/02 04:30:03;;;;;;;3.00;2.80;;;;;;;9.92;100.00;99070.81;10497791;28;20178;-72
2021/06/02 04:35:22;;;;;;;3.00;2.10;;;;;;;10.02;100.00;99075.53;10495649;28;20231;-74
2021/06/02 04:40:42;;;;;;;2.60;2.40;;;;;;;10.18;100.00;99073.16;10497502;28;20265;-73
2021/06/02 04:46:04;;;;;;;2.30;2.03;;;;;;;10.12;100.00;99069.22;10497439;28;20182;-74
2021/06/02 04:52:00;;;;;;;2.90;1.70;;;;;;;10.40;100.00;99076.22;10495115;28;20174;-73
2021/06/02 04:57:55;;;;;;;2.77;2.20;;;;;;;10.74;100.00;99070.97;10495747;28;20218;-73
2021/06/02 05:03:59;;;;;;;3.47;2.80;;;;;;;11.15;100.00;99083.72;10496843;28;20199;-74
2021/06/02 05:09:56;;;;;;;2.10;1.90;;;;;;;11.66;100.00;99081.81;10488378;28;20555;-73
2021/06/02 05:15:35;;;;;;;3.07;2.00;;;;;;;12.24;100.00;99092.69;10504636;28;20214;-74
2021/06/02 05:26:45;;;;;;;4.10;2.00;;;;;;;13.40;100.00;99090.06;10504097;28;20548;-72
2021/06/02 05:32:28;;;;;;;3.87;3.33;;;;;;;13.98;100.00;99102.13;10502976;28;20221;-75
2021/06/02 05:38:27;;;;;;;4.40;3.20;;;;;;;14.42;100.00;99097.00;10460486;28;20528;-73
2021/06/02 05:44:31;;;;;;;3.70;3.20;;;;;;;14.81;100.00;99101.78;10461735;28;20172;-75
2021/06/02 05:49:53;;;;;;;3.50;3.20;;;;;;;15.14;100.00;99105.00;10462605;28;20180;-73
2021/06/02 05:55:52;;;;;;;5.43;3.27;;;;;;;15.62;100.00;99107.13;10460825;28;20199;-73
2021/06/02 06:01:24;;;;;;;3.13;2.80;;;;;;;15.91;100.00;99099.69;10461955;28;20646;-72
2021/06/02 06:06:46;;;;;;;3.23;2.93;;;;;;;16.44;100.00;99097.91;10473663;28;20262;-73
2021/06/02 06:12:20;;;;;;;3.80;3.50;;;;;;;16.78;100.00;99098.94;10461446;28;20179;-72
2021/06/02 06:17:53;;;;;;;7.13;3.33;;;;;;;17.02;98.88;99103.00;10460556;28;20650;-73
2021/06/02 06:23:39;;;;;;;5.57;3.90;;;;;;;17.51;97.88;99103.53;10460015;28;20179;-73
2021/06/02 06:29:11;;;;;;;5.43;4.10;;;;;;;17.85;91.52;99107.22;10460868;28;20176;-73
2021/06/02 06:34:33;;;;;;;5.87;4.30;;;;;;;18.30;83.58;99104.91;10460238;28;20231;-74
2021/06/02 06:39:55;;;;;;;4.07;3.67;;;;;;;18.68;84.83;99104.31;10459218;28;20188;-73
2021/06/02 06:45:18;;;;;;;5.90;4.93;;;;;;;19.12;68.49;99108.69;10460230;28;20199;-74
2021/06/02 06:50:38;;;;;;;4.83;3.77;;;;;;;19.49;64.54;99113.22;10457993;28;20259;-73
2021/06/02 06:55:59;;;;;;;4.07;3.50;;;;;;;19.94;62.45;99107.84;10462750;28;20210;-75
2021/06/02 07:01:19;;;;;;;3.67;3.37;;;;;;;20.48;60.97;99101.13;10496388;28;20670;-74
2021/06/02 07:06:39;;;;;;;4.07;2.60;;;;;;;20.85;58.89;99107.53;10498392;28;20206;-74
2021/06/02 07:11:58;;;;;;;4.30;2.83;;;;;;;21.41;57.24;99111.31;10500577;28;20544;-74
2021/06/02 07:17:21;;;;;;;8.43;3.00;;;;;;;21.76;54.25;99102.81;10498700;28;20202;-74
2021/06/02 07:22:44;;;;;;;7.00;4.00;;;;;;;21.52;55.51;99103.19;10499033;28;20257;-74
2021/06/02 07:28:09;;;;;;;5.00;2.80;;;;;;;22.14;53.67;99094.53;10499013;28;20175;-74
2021/06/02 07:33:28;;;;;;;6.17;3.80;;;;;;;22.98;50.62;99098.59;10497611;28;20309;-74
2021/06/02 07:38:48;;;;;;;3.00;2.80;;;;;;;23.38;48.28;99108.03;10498328;28;20174;-73
2021/06/02 07:44:06;;;;;;;3.67;2.70;;;;;;;23.56;44.51;99110.63;10499177;28;20187;-75
2021/06/02 07:49:26;;;;;;;5.33;2.37;;;;;;;23.93;46.33;99106.91;10499190;28;20170;-73
2021/06/02 07:54:45;;;;;;;4.47;3.10;;;;;;;23.98;44.27;99102.63;10496315;28;20206;-73
2021/06/02 08:00:05;;;;;;;2.43;2.23;;;;;;;24.29;46.05;99107.19;10498795;28;20178;-73
2021/06/02 08:05:24;;;;;;;3.10;2.90;;;;;;;24.90;43.06;99100.31;10495891;28;20242;-73
2021/06/02 08:10:44;;;;;;;3.23;2.50;;;;;;;25.25;39.69;99093.28;10492731;28;20539;-74
2021/06/02 08:16:03;;;;;;;2.93;2.70;;;;;;;25.89;39.01;99096.41;10497762;28;20214;-74
2021/06/02 08:21:22;;;;;;;3.90;2.53;;;;;;;25.91;37.99;99099.50;10495803;28;20328;-74
2021/06/02 08:26:42;;;;;;;3.23;2.33;;;;;;;26.18;36.18;99094.03;10497114;28;20175;-73
2021/06/02 08:32:01;;;;;;;2.50;2.30;;;;;;;26.57;35.56;99099.91;10496478;28;20258;-74
2021/06/02 08:37:20;;;;;;;5.33;2.97;;;;;;;26.90;35.60;99093.09;10494829;28;20297;-73
2021/06/02 08:42:43;;;;;;;2.30;2.10;;;;;;;26.47;34.39;99101.41;10496537;28;20649;-74
2021/06/02 08:48:03;;;;;;;2.47;2.27;;;;;;;26.44;35.68;99082.66;10496585;28;20202;-77
2021/06/02 08:53:22;;;;;;;3.30;3.00;;;;;;;27.14;35.20;99082.13;10495027;28;20289;-75
2021/06/02 08:58:42;;;;;;;3.43;2.37;;;;;;;28.23;34.63;99086.28;10497260;28;20583;-74
2021/06/02 09:04:09;;;;;;;2.57;2.17;;;;;;;28.70;33.20;99080.19;10497027;28;20690;-75
2021/06/02 09:09:29;;;;;;;2.33;1.87;;;;;;;28.69;30.60;99085.06;10495690;28;20538;-75
2021/06/02 09:15:00;;;;;;;2.40;2.20;;;;;;;28.90;28.91;99079.84;10495534;28;20214;-75
2021/06/02 09:20:43;;;;;;;2.47;2.27;;;;;;;29.04;28.67;99076.69;10495553;28;20186;-75
2021/06/02 09:26:14;;;;;;;2.80;2.27;;;;;;;28.47;27.55;99073.09;10496721;28;20179;-76
2021/06/02 09:31:38;;;;;;;2.20;2.00;;;;;;;29.13;28.22;99079.22;10496477;28;20234;-75
2021/06/02 09:37:04;;;;;;;5.50;2.20;;;;;;;29.91;29.75;99083.78;10493499;28;20214;-74
2021/06/02 09:42:27;;;;;;;2.67;1.80;;;;;;;29.72;25.53;99097.09;10496555;28;20206;-75
2021/06/02 09:47:55;;;;;;;2.03;1.93;;;;;;;30.78;28.00;99087.75;10494344;28;20194;-74
2021/06/02 09:53:14;;;;;;;2.20;2.00;;;;;;;30.77;27.42;99091.13;10495786;28;20285;-75
2021/06/02 09:58:36;;;;;;;3.43;2.10;;;;;;;31.05;25.65;99092.31;10503636;28;20170;-75
2021/06/02 10:04:02;;;;;;;1.90;1.80;;;;;;;31.59;26.05;99078.59;10503296;28;20187;-75
2021/06/02 10:09:28;;;;;;;2.23;2.03;;;;;;;31.70;24.27;99085.63;10502038;28;20167;-75
2021/06/02 10:14:57;;;;;;;7.37;2.23;;;;;;;32.06;24.97;99078.31;10502480;28;20218;-75
2021/06/02 10:20:17;;;;;;;2.10;1.90;;;;;;;32.74;24.11;99075.19;10500594;28;20178;-77
2021/06/02 10:25:36;;;;;;;2.20;2.10;;;;;;;32.56;23.24;99076.03;10501189;28;20186;-76
2021/06/02 10:30:56;;;;;;;2.27;2.07;;;;;;;32.29;24.38;99079.44;10502175;28;20179;-75
2021/06/02 10:36:14;;;;;;;2.27;2.07;;;;;;;32.53;23.48;99079.22;10500389;28;20210;-76
2021/06/02 10:41:46;;;;;;;3.63;2.20;;;;;;;32.92;23.80;99079.94;10501825;28;20175;-77
2021/06/02 10:47:06;;;;;;;2.60;2.40;;;;;;;32.88;23.74;99081.59;10501606;28;20175;-77
2021/06/02 10:52:35;;;;;;;3.10;1.73;;;;;;;33.22;24.65;99085.28;10499476;28;20190;-76
2021/06/02 10:58:14;;;;;;;1.90;1.80;;;;;;;33.18;22.02;99076.31;10499823;28;20178;-77
2021/06/02 11:03:38;;;;;;;2.50;2.30;;;;;;;32.78;23.07;99086.25;10499709;28;20222;-74
2021/06/02 11:08:57;;;;;;;2.40;2.20;;;;;;;32.33;23.58;99082.72;10499595;28;20542;-76
2021/06/02 11:14:17;;;;;;;2.23;2.03;;;;;;;31.97;23.85;99075.88;10499477;28;20602;-77
2021/06/02 11:19:42;;;;;;;2.23;1.90;;;;;;;32.96;23.06;99074.69;10500538;28;20183;-76
2021/06/02 11:25:01;;;;;;;2.00;1.70;;;;;;;31.77;23.33;99070.78;10498005;28;20258;-76
2021/06/02 11:30:20;;;;;;;2.30;2.10;;;;;;;33.18;21.78;99067.75;10498995;28;20575;-76
2021/06/02 11:36:02;;;;;;;2.00;1.70;;;;;;;33.35;21.10;99077.44;10497579;28;20222;-75
2021/06/02 11:41:22;;;;;;;2.30;2.10;;;;;;;33.23;22.55;99079.03;10498400;28;20239;-77
2021/06/02 11:46:48;;;;;;;1.87;1.77;;;;;;;33.13;20.89;99074.31;10499173;28;20178;-77
2021/06/02 11:52:19;;;;;;;2.10;1.90;;;;;;;33.27;20.77;99061.59;10497625;28;20175;-76
2021/06/02 11:57:40;;;;;;;2.57;2.17;;;;;;;32.43;21.39;99063.13;10498836;28;20269;-77
2021/06/02 12:03:02;;;;;;;2.33;2.13;;;;;;;32.88;22.22;99067.34;10498307;28;20652;-77
2021/06/02 12:08:22;;;;;;;1.67;1.57;;;;;;;33.03;22.44;99059.00;10496066;28;20209;-75
2021/06/02 12:13:41;;;;;;;3.20;2.30;;;;;;;34.84;21.08;99066.47;10497876;28;20206;-75
2021/06/02 12:19:00;;;;;;;2.23;2.03;;;;;;;34.69;21.46;99055.75;10497432;28;20182;-75
2021/06/02 12:24:24;;;;;;;2.50;2.30;;;;;;;34.97;20.72;99065.00;10496495;28;20173;-75
2021/06/02 12:29:43;;;;;;;2.40;2.10;;;;;;;33.41;23.40;99053.19;10497589;28;20174;-74
2021/06/02 12:35:02;;;;;;;1.83;1.73;;;;;;;34.21;24.06;99052.97;10496829;28;20222;-75
2021/06/02 12:40:21;;;;;;;1.87;1.77;;;;;;;35.12;21.63;99053.66;10495771;28;20633;-75
2021/06/02 12:45:43;;;;;;;2.53;2.27;;;;;;;35.54;21.51;99052.06;10496847;28;20201;-76
2021/06/02 12:51:03;;;;;;;1.93;1.70;;;;;;;35.78;19.51;99050.75;10494934;28;20182;-76
2021/06/02 12:56:22;;;;;;;2.20;2.00;;;;;;;36.24;19.25;99047.31;10496520;28;20329;-77
2021/06/02 13:01:42;;;;;;;1.93;1.83;;;;;;;36.73;20.00;99043.41;10496891;28;20197;-73
2021/06/02 13:07:01;;;;;;;1.97;1.87;;;;;;;36.34;21.44;99051.13;10495768;28;20178;-72
2021/06/02 13:12:20;;;;;;;2.37;2.17;;;;;;;34.27;22.99;99051.47;10496935;28;20253;-75
2021/06/02 13:17:40;;;;;;;1.80;1.70;;;;;;;35.69;21.07;99057.81;10496360;28;20233;-76
2021/06/02 13:23:14;;;;;;;1.67;1.57;;;;;;;35.77;21.08;99047.13;10495578;28;20253;-77
2021/06/02 13:28:42;;;;;;;2.00;1.90;;;;;;;35.38;18.60;99041.13;10501401;28;20182;-76
2021/06/02 13:34:02;;;;;;;2.13;1.93;;;;;;;34.27;22.17;99057.19;10503809;28;20308;-76
2021/06/02 13:39:21;;;;;;;3.13;1.97;;;;;;;32.55;20.46;99050.94;10503157;28;20202;-74
2021/06/02 13:44:40;;;;;;;2.00;1.90;;;;;;;32.09;24.08;99039.44;10504059;28;20171;-75
2021/06/02 13:50:29;;;;;;;2.00;1.90;;;;;;;33.51;22.75;99042.03;10502995;28;20175;-76
2021/06/02 13:55:54;;;;;;;1.90;1.80;;;;;;;32.41;21.98;99051.50;10503033;28;20218;-75
2021/06/02 14:01:26;;;;;;;2.10;1.93;;;;;;;33.55;21.45;99043.22;10503421;28;20226;-76
2021/06/02 14:06:49;;;;;;;2.30;2.10;;;;;;;34.30;19.83;99038.91;10502048;28;20171;-75
2021/06/02 14:12:10;;;;;;;2.30;2.10;;;;;;;33.99;20.56;99044.97;10503228;28;20179;-76
2021/06/02 14:17:29;;;;;;;1.87;1.67;;;;;;;32.49;20.58;99048.22;10501413;28;20202;-74
2021/06/02 14:22:48;;;;;;;1.70;1.60;;;;;;;34.38;20.09;99042.59;10500410;28;20170;-76
2021/06/02 14:28:07;;;;;;;2.10;1.93;;;;;;;35.40;18.29;99024.91;10501228;28;20260;-76
2021/06/02 14:33:26;;;;;;;1.90;1.80;;;;;;;34.35;19.28;99031.50;10501715;28;20230;-75
2021/06/02 14:38:45;;;;;;;1.87;1.77;;;;;;;34.22;19.39;99045.91;10500197;28;20261;-75
2021/06/02 14:44:09;;;;;;;2.20;2.00;;;;;;;33.64;20.51;99037.06;10500927;28;20175;-76
2021/06/02 14:49:28;;;;;;;1.90;1.60;;;;;;;34.24;19.52;99037.56;10501542;28;20179;-75
2021/06/02 14:54:47;;;;;;;2.10;2.00;;;;;;;34.75;18.85;99033.47;10499768;28;20203;-75
2021/06/02 15:00:07;;;;;;;1.77;1.67;;;;;;;34.04;19.12;99026.16;10500993;28;20190;-75
2021/06/02 15:05:27;;;;;;;2.50;2.30;;;;;;;35.25;20.53;99021.28;10498644;28;20163;-75
2021/06/02 15:10:47;;;;;;;1.70;1.60;;;;;;;34.95;19.72;99020.41;10500544;28;20166;-75
2021/06/02 15:16:06;;;;;;;1.77;1.67;;;;;;;35.85;18.99;99014.28;10500045;28;20296;-75
2021/06/02 15:21:25;;;;;;;1.73;1.63;;;;;;;35.34;18.22;99015.00;10497972;28;20166;-75
2021/06/02 15:26:48;;;;;;;1.70;1.53;;;;;;;34.24;19.84;99012.59;10499672;28;20166;-75
2021/06/02 15:32:08;;;;;;;3.50;2.33;;;;;;;34.46;19.50;99016.91;10499016;28;20218;-75
2021/06/02 15:37:30;;;;;;;1.47;1.37;;;;;;;34.17;18.42;99003.97;10496164;28;20615;-73
2021/06/02 15:42:50;;;;;;;5.33;2.20;;;;;;;34.67;19.09;98998.38;10499334;28;20178;-74
2021/06/02 15:48:09;;;;;;;2.27;2.07;;;;;;;33.91;19.41;99004.19;10499063;28;20174;-73
2021/06/02 15:53:31;;;;;;;2.10;1.80;;;;;;;33.08;21.25;98992.53;10494799;28;20194;-74
2021/06/02 15:58:51;;;;;;;3.20;1.70;;;;;;;34.11;19.41;98994.81;10497486;28;20198;-74
2021/06/02 16:04:10;;;;;;;1.60;1.50;;;;;;;34.90;19.07;98987.78;10497249;28;20170;-74
2021/06/02 16:09:29;;;;;;;1.63;1.53;;;;;;;34.71;18.58;98983.72;10496386;28;20212;-75
2021/06/02 16:14:48;;;;;;;1.80;1.60;;;;;;;34.34;19.87;98984.28;10497349;28;20202;-75
2021/06/02 16:20:08;;;;;;;1.37;1.27;;;;;;;34.26;18.84;98984.25;10496901;28;20264;-74
2021/06/02 16:25:28;;;;;;;1.17;1.07;;;;;;;34.19;18.46;98972.78;10497801;28;20573;-75
2021/06/02 16:30:48;;;;;;;3.60;1.40;;;;;;;34.15;18.46;98981.69;10497727;28;20257;-76
2021/06/02 16:36:08;;;;;;;1.60;1.30;;;;;;;33.92;19.14;98976.38;10495448;28;20240;-73
2021/06/02 16:41:27;;;;;;;1.93;1.83;;;;;;;33.62;19.98;98982.63;10497161;28;20179;-72
2021/06/02 16:46:46;;;;;;;1.37;1.27;;;;;;;33.76;18.75;98981.22;10496951;28;20181;-74
2021/06/02 16:52:06;;;;;;;4.87;2.03;;;;;;;34.16;19.00;98986.09;10495019;28;20574;-74
2021/06/02 16:57:25;;;;;;;2.20;1.50;;;;;;;33.93;19.74;98978.66;10496530;28;20202;-74
2021/06/02 17:02:44;;;;;;;1.93;1.33;;;;;;;33.74;19.76;98983.88;10500446;28;20174;-74
2021/06/02 17:08:06;;;;;;;1.40;1.30;;;;;;;34.03;18.92;98985.41;10504043;28;20290;-75
2021/06/02 17:13:26;;;;;;;1.40;1.30;;;;;;;34.19;19.60;98979.25;10504913;28;20204;-74
2021/06/02 17:18:47;;;;;;;1.50;1.40;;;;;;;34.24;19.73;98992.59;10504948;28;20174;-74
2021/06/02 17:24:07;;;;;;;1.70;1.60;;;;;;;34.42;19.93;98993.66;10503520;28;20217;-74
2021/06/02 17:29:32;;;;;;;1.53;1.43;;;;;;;34.63;18.95;98989.41;10504635;28;20676;-75
2021/06/02 17:34:51;;;;;;;1.47;1.37;;;;;;;34.48;19.97;98997.88;10502561;28;20254;-74
2021/06/02 17:40:12;;;;;;;2.00;1.80;;;;;;;33.45;20.14;99007.94;10502837;28;20171;-74
2021/06/02 17:45:31;;;;;;;2.23;2.03;;;;;;;31.96;21.36;99011.72;10503752;28;20531;-74
2021/06/02 17:50:53;;;;;;;1.90;1.80;;;;;;;30.69;23.02;99019.97;10501220;28;20178;-74
2021/06/02 17:56:14;;;;;;;2.10;1.90;;;;;;;29.97;23.71;99022.09;10501953;28;20222;-73
2021/06/02 18:01:33;;;;;;;1.57;1.47;;;;;;;29.29;24.81;99030.16;10503283;28;20194;-74
2021/06/02 18:06:54;;;;;;;1.53;1.40;;;;;;;28.73;25.70;99017.63;10501889;28;20433;-74
2021/06/02 18:12:13;;;;;;;2.20;2.00;;;;;;;28.28;26.53;99029.69;10502126;28;20236;-74
2021/06/02 18:17:35;;;;;;;2.50;2.10;;;;;;;27.92;27.49;99024.34;10500931;28;20202;-74
2021/06/02 18:23:02;;;;;;;6.80;2.13;;;;;;;27.51;28.79;99032.59;10501222;28;20206;-76
2021/06/02 18:28:23;;;;;;;3.83;1.83;;;;;;;27.06;29.74;99041.56;10502204;28;20175;-74
2021/06/02 18:33:43;;;;;;;1.70;1.53;;;;;;;26.64;32.36;99038.88;10500245;28;20627;-74
2021/06/02 18:39:05;;;;;;;2.10;1.67;;;;;;;26.06;33.20;99038.09;10500273;28;20183;-75
2021/06/02 18:44:23;;;;;;;3.13;1.90;;;;;;;25.53;35.15;99051.28;10500596;28;20179;-76
2021/06/02 18:49:42;;;;;;;4.70;2.30;;;;;;;24.99;37.05;99058.69;10500279;28;20167;-76
2021/06/02 18:55:07;;;;;;;3.57;2.23;;;;;;;24.63;38.79;99054.97;10499595;28;20652;-74
2021/06/02 19:00:26;;;;;;;1.90;1.60;;;;;;;24.24;40.18;99070.53;10499986;28;20191;-75
2021/06/02 19:05:46;;;;;;;2.43;1.90;;;;;;;23.93;41.15;99064.75;10499677;28;20163;-74
2021/06/02 19:11:05;;;;;;;6.00;3.90;;;;;;;23.65;40.46;99071.19;10499704;28;20175;-75
2021/06/02 19:16:24;;;;;;;11.23;7.60;;;;;;;23.38;42.53;99082.75;10499737;28;20218;-75
2021/06/02 19:21:43;;;;;;;4.10;2.60;;;;;;;22.83;43.64;99097.78;10498016;28;20179;-74
2021/06/02 19:27:02;;;;;;;6.80;4.03;;;;;;;22.58;46.49;99106.72;10499431;28;20171;-74
2021/06/02 19:32:22;;;;;;;10.80;5.87;;;;;;;22.40;48.97;99118.06;10499238;28;20227;-75
2021/06/02 19:37:43;;;;;;;2.20;2.00;;;;;;;22.09;46.02;99128.03;10497266;28;20206;-75
2021/06/02 19:43:03;;;;;;;3.60;1.80;;;;;;;21.52;47.74;99134.78;10499364;28;20266;-74
2021/06/02 19:48:22;;;;;;;2.13;1.93;;;;;;;21.14;49.09;99144.97;10499127;28;20581;-74
2021/06/02 19:53:41;;;;;;;2.23;2.03;;;;;;;20.95;50.06;99149.81;10497481;28;20247;-75
2021/06/02 19:59:00;;;;;;;2.87;1.93;;;;;;;20.79;50.91;99171.69;10497425;28;20191;-74
2021/06/02 20:04:20;;;;;;;2.20;1.87;;;;;;;20.82;52.20;99178.38;10498404;28;20540;-75
2021/06/02 20:09:39;;;;;;;4.00;1.83;;;;;;;20.50;52.85;99188.09;10496953;28;20214;-74
2021/06/02 20:14:58;;;;;;;4.80;2.20;;;;;;;20.03;53.83;99181.28;10496979;28;20214;-74
2021/06/02 20:20:17;;;;;;;1.97;1.87;;;;;;;19.69;55.38;99186.22;10497617;28;20179;-74
2021/06/02 20:25:36;;;;;;;11.43;2.53;;;;;;;19.46;57.14;99195.09;10498187;28;20194;-73
2021/06/02 20:36:14;;;;;;;1.97;1.80;;;;;;;19.05;62.25;99214.91;10495352;28;20695;-74
2021/06/02 20:41:34;;;;;;;3.77;2.93;;;;;;;18.92;63.15;99219.72;10497034;28;20175;-74
2021/06/02 20:46:53;;;;;;;2.50;2.30;;;;;;;18.77;64.32;99229.81;10497583;28;20649;-74
2021/06/02 20:52:13;;;;;;;2.63;1.90;;;;;;;18.60;65.65;99228.41;10496182;28;20257;-74
2021/06/02 20:57:32;;;;;;;2.33;1.80;;;;;;;18.58;65.82;99233.66;10495741;28;20210;-74
2021/06/02 21:02:54;;;;;;;2.67;2.17;;;;;;;18.59;66.41;99234.44;10497174;28;20253;-76
2021/06/02 21:08:13;;;;;;;2.17;2.00;;;;;;;18.18;67.74;99242.13;10496019;28;20228;-74
2021/06/02 21:13:34;;;;;;;2.47;2.00;;;;;;;17.79;69.86;99243.34;10495997;28;20226;-74
2021/06/02 21:18:54;;;;;;;2.83;2.60;;;;;;;17.75;70.67;99253.03;10497328;28;20166;-73
2021/06/02 21:24:13;;;;;;;2.43;2.23;;;;;;;17.66;71.42;99252.91;10495606;28;20175;-73
2021/06/02 21:29:33;;;;;;;2.30;1.73;;;;;;;17.23;74.41;99262.84;10496983;28;20202;-74
2021/06/02 21:34:52;;;;;;;2.50;1.70;;;;;;;17.07;75.40;99257.34;10495612;28;20226;-75
2021/06/02 21:40:12;;;;;;;2.10;1.90;;;;;;;16.91;76.57;99263.69;10495279;28;20607;-73
2021/06/02 21:45:32;;;;;;;2.77;2.57;;;;;;;16.76;77.86;99263.72;10496313;28;20175;-75
2021/06/02 21:50:52;;;;;;;2.90;2.37;;;;;;;16.74;77.67;99271.72;10501576;28;20588;-74
2021/06/02 21:56:11;;;;;;;3.10;2.77;;;;;;;16.81;77.01;99275.88;10503416;28;20211;-74
2021/06/02 22:01:31;;;;;;;13.93;3.17;;;;;;;16.61;78.34;99274.41;10503528;28;20250;-73
2021/06/02 22:06:50;;;;;;;2.43;2.20;;;;;;;16.44;80.26;99274.84;10501986;28;20183;-74
2021/06/02 22:12:09;;;;;;;2.00;1.80;;;;;;;16.39;78.40;99278.16;10502765;28;20533;-76
2021/06/02 22:17:28;;;;;;;6.80;2.33;;;;;;;16.30;78.79;99289.06;10502270;28;20198;-76
2021/06/02 22:22:48;;;;;;;3.57;2.30;;;;;;;16.37;80.08;99284.13;10501102;28;20568;-75
2021/06/02 22:28:08;;;;;;;2.63;2.43;;;;;;;16.15;78.25;99280.25;10502737;28;20170;-75
2021/06/02 22:33:28;;;;;;;2.43;2.23;;;;;;;16.07;78.43;99278.84;10501955;28;20670;-74
2021/06/02 22:38:46;;;;;;;7.50;3.00;;;;;;;15.92;79.86;99281.59;10500445;28;20175;-73
2021/06/02 22:44:05;;;;;;;3.43;2.27;;;;;;;15.71;82.61;99295.94;10500545;28;20175;-75
2021/06/02 22:49:24;;;;;;;2.30;2.03;;;;;;;15.50;85.30;99299.91;10501624;28;20170;-75
2021/06/02 22:54:43;;;;;;;1.97;1.87;;;;;;;15.33;86.01;99306.59;10499712;28;20198;-74
2021/06/02 23:00:08;;;;;;;2.50;2.30;;;;;;;15.31;88.21;99309.00;10499904;28;20175;-73
2021/06/02 23:05:28;;;;;;;5.70;3.23;;;;;;;15.29;90.10;99305.88;10499726;28;20179;-73
2021/06/02 23:10:48;;;;;;;2.40;2.20;;;;;;;15.24;89.95;99298.06;10500653;28;20261;-74
2021/06/02 23:16:10;;;;;;;2.57;2.37;;;;;;;15.25;89.88;99301.59;10500467;28;20210;-73
2021/06/02 23:21:29;;;;;;;2.77;2.43;;;;;;;15.11;91.61;99310.16;10499217;28;20201;-74
2021/06/02 23:26:48;;;;;;;6.13;2.70;;;;;;;14.88;96.88;99304.63;10500063;28;20308;-73
2021/06/02 23:32:07;;;;;;;2.53;2.33;;;;;;;14.87;96.56;99310.56;10499950;28;20693;-74
2021/06/02 23:37:26;;;;;;;2.83;2.63;;;;;;;14.87;96.68;99316.13;10497251;28;20206;-75
2021/06/02 23:42:46;;;;;;;3.03;2.70;;;;;;;14.74;98.70;99331.78;10499343;28;20178;-75
2021/06/02 23:48:06;;;;;;;1.60;1.50;;;;;;;14.36;100.00;99330.41;10498647;28;20175;-73
2021/06/02 23:53:25;;;;;;;4.00;2.60;;;;;;;14.11;100.00;99332.75;10496705;28;20197;-74
2021/06/02 23:58:44;;;;;;;3.20;2.93;;;;;;;13.95;100.00;99327.00;10498227;28;20274;-73
